PASD

Details ICAO PASD (SDP)
Name SAND POINT
Region USA (Alaska)
Timezone Unknown (UTC+0.0)
Plans Departing 9
Arriving 10
Stats Elevation 21 ft / 6 m (AMSL)
Location 55.315041° -160.522670°
Runways 1
Magnetic Variation 11.658° E
Sunrise 2017-12-18 19:07:03 UTC / 2017-12-18 19:07:03 Local
Sunset 2017-12-19 02:13:29 UTC / 2017-12-19 02:13:29 Local
Advertisement - Login to hide

Runways

ID Width Length Bearing (true) Bearing (mag) Surface Threshold Offset Overrun Length
13 150 ft / 46 m 3,991 ft / 1,216 m 148.86° 137.20° Asphalt 0 ft / 0 m 0 ft / 0 m
31 150 ft / 46 m 3,991 ft / 1,216 m 328.86° 317.20° Asphalt 0 ft / 0 m 0 ft / 0 m

Map

Weather


0- 5 10 15 20 25 30 35+ Temperature / ° C

Clouds and Precipitation
Forecast for 2017-12-18 18:00 UTC. Updated 2 hours ago

Ground ~20,000 ft ~40,000 ft Winds

METAR

PASD 181356Z AUTO 21013G19KT 10SM OVC032 04/M01 A3021 RMK AO2 SLP233 T00441011

TAF

TAF PASD 181150Z 1812/1912 20010KT P6SM SKC FM182000 19018G26KT 6SM -RA BR BKN015 OVC025 FM190000 18022G32KT 5SM BR BKN008 OVC015 AMD LTD TO CLD VIS AND WIND

Frequencies

Recorded 134.85 MHz AWOS 3
Unicom 122.80 MHz UNICOM
Unicom 122.30 MHz CTAF
Clearance 122.30 MHz CLNC DEL
Warning: Do not use this data for real-world aviation or navigation. No guarantee of current accuracy is given.